Time;durP1;ratioP1;P1;durP2;ratioP2;P2;SDS_P1;SDS_P2;PMS_P1;PMS_P2;Temp;Humidity;BMP_temperature;BMP_pressure;BME280_temperature;BME280_humidity;BME280_pressure;Samples;Min_cycle;Max_cycle;Signal;HPM_P1;HPM_P2
2021/12/22 00:01:38;;;;;;;19.63;17.88;;;-0.40;56.00;;;;;;4955095;28;20181;-82
2021/12/22 00:04:04;;;;;;;20.27;18.50;;;-0.40;56.40;;;;;;4955052;29;20213;-83
2021/12/22 00:06:32;;;;;;;21.70;19.80;;;-0.40;56.60;;;;;;4954683;29;20414;-81
2021/12/22 00:08:59;;;;;;;19.70;17.80;;;-0.40;56.00;;;;;;4954810;28;20175;-82
2021/12/22 00:11:25;;;;;;;20.13;18.13;;;-0.30;55.50;;;;;;4954986;29;20698;-83
2021/12/22 00:13:51;;;;;;;19.90;17.90;;;-0.40;54.70;;;;;;4954997;29;20289;-82
2021/12/22 00:16:16;;;;;;;19.48;17.73;;;-0.40;54.80;;;;;;4954553;28;20418;-83
2021/12/22 00:18:42;;;;;;;19.70;17.90;;;-0.40;54.50;;;;;;4954299;29;20192;-83
2021/12/22 00:21:09;;;;;;;21.57;19.57;;;-0.50;55.00;;;;;;4954369;29;20212;-87
2021/12/22 00:23:35;;;;;;;21.00;19.10;;;-0.40;55.20;;;;;;4954396;29;20239;-82
2021/12/22 00:26:01;;;;;;;18.57;16.80;;;-0.60;54.70;;;;;;4954512;28;20629;-83
2021/12/22 00:28:27;;;;;;;20.27;18.43;;;-0.60;56.00;;;;;;4954043;29;20500;-81
2021/12/22 00:30:52;;;;;;;22.10;19.00;;;-0.60;55.00;;;;;;4953464;28;20425;-82
2021/12/22 00:33:19;;;;;;;21.10;18.90;;;-0.60;55.50;;;;;;4953619;29;20283;-82
2021/12/22 00:35:45;;;;;;;19.50;17.73;;;-0.60;55.80;;;;;;4953948;28;20191;-81
2021/12/22 00:38:17;;;;;;;20.17;18.37;;;-0.60;55.90;;;;;;4937527;29;20559;-82
2021/12/22 00:40:44;;;;;;;18.58;16.98;;;-0.70;55.90;;;;;;4953715;29;20422;-83
2021/12/22 00:43:10;;;;;;;20.80;18.80;;;-0.60;57.30;;;;;;4953647;29;20638;-82
2021/12/22 00:45:38;;;;;;;20.02;18.13;;;-0.70;57.40;;;;;;4953322;29;20273;-83
2021/12/22 00:48:05;;;;;;;19.70;17.88;;;-0.60;57.80;;;;;;4953161;29;20617;-82
2021/12/22 00:50:33;;;;;;;18.67;16.98;;;-0.60;56.70;;;;;;4952860;29;20177;-81
2021/12/22 00:52:59;;;;;;;20.35;18.55;;;-0.50;56.20;;;;;;4952537;29;20269;-82
2021/12/22 00:55:25;;;;;;;20.35;18.35;;;-0.60;57.10;;;;;;4952920;29;20523;-83
2021/12/22 00:57:51;;;;;;;19.02;17.35;;;-0.60;57.30;;;;;;4952727;28;20176;-82
2021/12/22 01:00:20;;;;;;;19.80;17.97;;;-0.70;57.20;;;;;;4953299;29;20820;-82
2021/12/22 01:02:46;;;;;;;19.90;18.15;;;-0.70;56.90;;;;;;4953726;28;20466;-81
2021/12/22 01:05:14;;;;;;;20.17;18.33;;;-0.70;57.40;;;;;;4952928;28;20185;-82
2021/12/22 01:07:41;;;;;;;20.70;18.90;;;-0.70;57.10;;;;;;4952151;29;20176;-82
2021/12/22 01:10:09;;;;;;;19.88;17.88;;;-0.70;57.10;;;;;;4952755;29;20228;-82
2021/12/22 01:12:35;;;;;;;20.05;17.95;;;-0.70;56.90;;;;;;4951960;28;20750;-83
2021/12/22 01:15:01;;;;;;;20.65;18.85;;;-0.70;57.30;;;;;;4952836;28;20192;-82
2021/12/22 01:17:34;;;;;;;20.67;18.67;;;-0.60;56.70;;;;;;4952265;28;20231;-82
2021/12/22 01:20:07;;;;;;;20.55;18.58;;;-0.70;57.70;;;;;;4951634;29;20239;-82
2021/12/22 01:25:04;;;;;;;19.85;18.05;;;-0.70;56.20;;;;;;4954101;28;20600;-83
2021/12/22 01:27:35;;;;;;;19.15;17.10;;;-0.70;57.40;;;;;;4952500;28;20607;-82
2021/12/22 01:30:08;;;;;;;22.23;20.13;;;-0.70;56.60;;;;;;4952034;28;20264;-83
2021/12/22 01:32:34;;;;;;;21.52;19.30;;;-0.70;56.40;;;;;;4951800;28;20214;-83
2021/12/22 01:35:00;;;;;;;18.70;17.13;;;-0.80;57.40;;;;;;4951712;29;20529;-84
2021/12/22 01:37:26;;;;;;;19.08;17.40;;;-0.70;56.80;;;;;;4950939;28;20239;-82
2021/12/22 01:39:52;;;;;;;19.70;17.90;;;-0.70;57.60;;;;;;4951973;28;20192;-82
2021/12/22 01:42:19;;;;;;;19.20;17.27;;;-0.80;56.40;;;;;;4952254;28;20851;-82
2021/12/22 01:50:39;;;;;;;21.15;18.98;;;-0.80;57.20;;;;;;4953343;29;20190;-83
2021/12/22 01:53:21;;;;;;;18.30;16.58;;;-0.80;56.60;;;;;;4951681;28;20180;-84
2021/12/22 01:56:07;;;;;;;20.67;18.92;;;-0.80;56.40;;;;;;4951297;28;20617;-83
2021/12/22 01:58:40;;;;;;;20.52;18.58;;;-0.80;56.40;;;;;;4951233;29;20184;-82
2021/12/22 02:01:07;;;;;;;19.90;18.00;;;-0.80;56.00;;;;;;4951197;29;20363;-82
2021/12/22 02:03:33;;;;;;;19.85;17.90;;;-0.70;56.30;;;;;;4950818;28;20261;-82
2021/12/22 02:05:59;;;;;;;20.77;17.15;;;-0.80;56.30;;;;;;4951490;28;20210;-83
2021/12/22 02:08:25;;;;;;;19.77;17.85;;;-0.80;57.00;;;;;;4951931;28;20214;-83
2021/12/22 02:10:51;;;;;;;20.47;18.77;;;-0.70;56.20;;;;;;4951155;28;20207;-83
2021/12/22 02:13:24;;;;;;;20.10;18.03;;;-0.70;55.90;;;;;;4951174;29;20542;-82
2021/12/22 02:15:49;;;;;;;20.38;18.48;;;-0.70;56.30;;;;;;4951205;28;20569;-82
2021/12/22 02:18:20;;;;;;;19.83;17.90;;;-0.70;56.20;;;;;;4951280;29;20181;-83
2021/12/22 02:20:47;;;;;;;21.25;18.90;;;-0.70;56.50;;;;;;4950826;29;20181;-82
2021/12/22 02:23:13;;;;;;;19.83;18.13;;;-0.70;55.40;;;;;;4950860;29;20519;-81
2021/12/22 02:25:47;;;;;;;21.03;18.87;;;-0.80;55.70;;;;;;4951179;29;20175;-83
2021/12/22 02:28:21;;;;;;;20.63;18.55;;;-0.80;55.90;;;;;;4952510;28;20254;-84
2021/12/22 02:30:47;;;;;;;20.15;18.20;;;-0.80;56.40;;;;;;4951079;28;20176;-83
2021/12/22 02:38:29;;;;;;;21.50;19.50;;;-1.00;55.90;;;;;;4953751;28;20171;-83
2021/12/22 02:40:55;;;;;;;20.40;18.58;;;-1.00;56.00;;;;;;4954989;28;20187;-82
2021/12/22 02:43:23;;;;;;;22.20;20.10;;;-0.90;56.10;;;;;;4964189;29;20207;-82
2021/12/22 02:45:51;;;;;;;20.55;18.75;;;-0.90;55.40;;;;;;4963551;28;20244;-83
2021/12/22 02:48:18;;;;;;;21.25;19.23;;;-0.90;56.00;;;;;;4953000;28;20252;-83
2021/12/22 02:50:43;;;;;;;21.98;19.70;;;-0.80;55.70;;;;;;4954946;28;20180;-84
2021/12/22 02:53:14;;;;;;;20.63;18.53;;;-0.90;55.30;;;;;;4955271;28;20264;-82
2021/12/22 02:55:52;;;;;;;22.05;20.15;;;-0.90;56.00;;;;;;4955491;28;20176;-83
2021/12/22 03:03:44;;;;;;;21.60;19.58;;;-0.90;56.70;;;;;;4956490;28;20678;-83
2021/12/22 03:06:13;;;;;;;22.30;20.25;;;-0.90;56.70;;;;;;4954804;28;20714;-82
2021/12/22 03:08:39;;;;;;;23.20;20.80;;;-0.90;56.00;;;;;;4954852;29;20183;-82
2021/12/22 03:11:04;;;;;;;22.57;20.37;;;-0.90;55.80;;;;;;4954660;29;20544;-83
2021/12/22 03:13:31;;;;;;;21.63;19.53;;;-0.90;55.60;;;;;;4956080;28;20191;-82
2021/12/22 03:15:57;;;;;;;21.83;19.83;;;-1.00;55.90;;;;;;4954265;29;20557;-83
2021/12/22 03:18:23;;;;;;;22.23;20.13;;;-1.00;56.50;;;;;;4954271;28;20183;-83
2021/12/22 03:20:57;;;;;;;21.23;19.13;;;-1.00;56.20;;;;;;4955054;28;20185;-82
2021/12/22 03:23:23;;;;;;;20.85;18.90;;;-1.00;56.30;;;;;;4954519;29;20852;-82
2021/12/22 03:25:49;;;;;;;21.90;20.00;;;-1.00;56.20;;;;;;4954557;28;20176;-83
2021/12/22 03:28:14;;;;;;;20.10;18.30;;;-1.00;56.30;;;;;;4954969;29;20191;-83
2021/12/22 03:30:40;;;;;;;21.70;19.57;;;-1.00;56.50;;;;;;4954435;28;20179;-83
2021/12/22 03:33:06;;;;;;;20.80;18.60;;;-1.10;56.50;;;;;;4953590;28;20226;-82
2021/12/22 03:35:34;;;;;;;21.67;19.67;;;-1.10;56.20;;;;;;4954454;29;20184;-82
2021/12/22 03:38:00;;;;;;;21.83;19.55;;;-1.20;56.70;;;;;;4954042;29;20188;-82
2021/12/22 03:40:27;;;;;;;19.00;17.30;;;-1.20;56.20;;;;;;4954003;28;20677;-82
2021/12/22 03:42:53;;;;;;;23.02;21.00;;;-1.20;56.80;;;;;;4953808;29;20262;-83
2021/12/22 03:45:19;;;;;;;20.77;18.83;;;-1.30;56.70;;;;;;4954449;28;20176;-83
2021/12/22 03:47:46;;;;;;;22.17;20.17;;;-1.30;57.20;;;;;;4953912;28;20191;-82
2021/12/22 03:50:13;;;;;;;23.00;20.75;;;-1.40;57.10;;;;;;4953801;28;20814;-82
2021/12/22 03:52:38;;;;;;;21.23;19.13;;;-1.40;57.10;;;;;;4954147;29;20186;-84
2021/12/22 03:55:06;;;;;;;22.73;20.63;;;-1.30;57.20;;;;;;4954163;28;20175;-82
2021/12/22 03:57:32;;;;;;;20.60;18.80;;;-1.30;56.20;;;;;;4955424;28;20188;-83
2021/12/22 03:59:58;;;;;;;20.83;18.90;;;-1.40;56.80;;;;;;4953408;28;20207;-82
2021/12/22 04:02:26;;;;;;;22.42;20.42;;;-1.50;57.10;;;;;;4954052;28;20199;-83
2021/12/22 04:04:52;;;;;;;24.48;22.10;;;-1.40;57.10;;;;;;4953427;28;20263;-81
2021/12/22 04:07:18;;;;;;;23.90;21.60;;;-1.40;57.10;;;;;;4953617;29;20282;-82
2021/12/22 04:09:44;;;;;;;26.75;24.05;;;-1.50;57.60;;;;;;4953086;29;20815;-82
2021/12/22 04:12:11;;;;;;;24.90;22.50;;;-1.40;57.10;;;;;;4953550;29;20259;-82
2021/12/22 04:14:36;;;;;;;23.35;21.10;;;-1.30;57.00;;;;;;4953380;29;20561;-83
2021/12/22 04:17:03;;;;;;;22.03;20.00;;;-1.40;56.80;;;;;;4950606;28;20175;-83
2021/12/22 04:19:29;;;;;;;22.17;20.25;;;-1.50;57.10;;;;;;4950790;29;20179;-84
2021/12/22 04:21:54;;;;;;;23.77;21.47;;;-1.50;57.20;;;;;;4950963;28;20180;-84
2021/12/22 04:24:21;;;;;;;21.13;19.13;;;-1.50;57.40;;;;;;4949908;28;20840;-83
2021/12/22 04:26:47;;;;;;;22.88;20.65;;;-1.50;57.50;;;;;;4950820;28;20200;-84
2021/12/22 04:29:13;;;;;;;22.23;20.13;;;-1.50;57.80;;;;;;4950400;28;20587;-83
2021/12/22 04:31:39;;;;;;;22.50;20.20;;;-1.40;57.10;;;;;;4950770;28;20209;-83
2021/12/22 04:34:08;;;;;;;22.40;20.23;;;-1.40;57.20;;;;;;4950808;28;20258;-82
2021/12/22 04:36:38;;;;;;;21.48;19.38;;;-1.40;56.80;;;;;;4951175;28;20416;-84
2021/12/22 04:39:06;;;;;;;22.83;20.63;;;-1.40;56.60;;;;;;4951214;28;20263;-83
2021/12/22 04:41:32;;;;;;;21.88;19.63;;;-1.50;56.60;;;;;;4936365;29;20260;-82
2021/12/22 04:43:58;;;;;;;23.60;21.27;;;-1.40;56.30;;;;;;4950593;28;20200;-83
2021/12/22 04:46:24;;;;;;;22.97;20.80;;;-1.50;55.70;;;;;;4936207;29;20720;-82
2021/12/22 04:48:50;;;;;;;23.13;20.70;;;-1.50;56.20;;;;;;4950776;28;20180;-84
2021/12/22 04:51:26;;;;;;;24.77;22.37;;;-1.50;57.10;;;;;;4950936;28;20459;-82
2021/12/22 04:53:59;;;;;;;24.42;21.92;;;-1.60;56.10;;;;;;4951952;28;20426;-82
2021/12/22 04:56:24;;;;;;;24.48;21.95;;;-1.60;57.00;;;;;;4951789;28;20235;-82
2021/12/22 04:58:50;;;;;;;23.03;20.90;;;-1.50;56.90;;;;;;4951263;28;20547;-82
2021/12/22 05:01:16;;;;;;;20.23;18.43;;;-1.40;56.50;;;;;;4952283;28;20184;-82
2021/12/22 05:03:42;;;;;;;23.30;21.03;;;-1.50;56.40;;;;;;4951797;28;20310;-81
2021/12/22 05:06:07;;;;;;;21.90;19.80;;;-1.60;55.70;;;;;;4951235;28;20180;-82
2021/12/22 05:08:33;;;;;;;20.70;18.90;;;-1.50;55.60;;;;;;4951340;28;20247;-82
2021/12/22 05:10:59;;;;;;;23.17;20.87;;;-1.50;55.50;;;;;;4951445;28;20215;-81
2021/12/22 05:13:24;;;;;;;23.30;21.30;;;-1.50;56.50;;;;;;4950691;29;20204;-82
2021/12/22 05:15:51;;;;;;;24.93;21.13;;;-1.50;56.20;;;;;;4951504;28;20184;-82
2021/12/22 05:18:24;;;;;;;22.20;19.95;;;-1.40;56.40;;;;;;4951057;28;20180;-81
2021/12/22 05:20:51;;;;;;;23.40;21.05;;;-1.40;55.80;;;;;;4951019;29;20270;-81
2021/12/22 05:23:17;;;;;;;22.02;20.02;;;-1.50;54.80;;;;;;4950310;28;20207;-83
2021/12/22 05:25:44;;;;;;;22.02;19.95;;;-1.60;55.00;;;;;;4936295;29;20180;-81
2021/12/22 05:28:10;;;;;;;22.20;19.92;;;-1.60;55.40;;;;;;4950770;28;20343;-83
2021/12/22 05:30:36;;;;;;;22.40;20.30;;;-1.50;55.20;;;;;;4950745;29;20186;-84
2021/12/22 05:33:02;;;;;;;22.33;20.23;;;-1.60;55.10;;;;;;4950920;28;20420;-83
2021/12/22 05:35:28;;;;;;;20.25;18.25;;;-1.60;55.10;;;;;;4951094;29;20530;-83
2021/12/22 05:37:53;;;;;;;20.93;18.93;;;-1.60;55.10;;;;;;4950936;28;20239;-80
2021/12/22 05:40:19;;;;;;;22.33;20.03;;;-1.60;55.50;;;;;;4950683;28;20184;-82
2021/12/22 05:42:46;;;;;;;24.23;21.55;;;-1.60;55.50;;;;;;4950787;28;20251;-83
2021/12/22 05:45:12;;;;;;;23.08;20.88;;;-1.50;55.60;;;;;;4950818;28;20577;-82
2021/12/22 05:47:38;;;;;;;22.60;20.30;;;-1.60;55.70;;;;;;4950490;29;20544;-83
2021/12/22 05:50:06;;;;;;;21.50;19.67;;;-1.60;55.40;;;;;;4936489;29;20174;-82
2021/12/22 05:52:32;;;;;;;20.80;18.90;;;-1.60;56.50;;;;;;4951128;29;20184;-82
2021/12/22 05:54:57;;;;;;;23.10;21.10;;;-1.60;56.50;;;;;;4950874;28;20660;-81
2021/12/22 05:57:23;;;;;;;22.20;19.90;;;-1.60;56.00;;;;;;4950911;29;20696;-83
2021/12/22 05:59:48;;;;;;;22.50;20.33;;;-1.70;56.50;;;;;;4950458;28;20180;-83
2021/12/22 06:02:14;;;;;;;22.43;20.43;;;-1.70;56.90;;;;;;4950534;28;20604;-81
2021/12/22 06:04:40;;;;;;;24.33;22.03;;;-1.70;56.80;;;;;;4950526;28;20180;-81
2021/12/22 06:07:05;;;;;;;22.20;20.00;;;-1.80;57.10;;;;;;4950475;28;20180;-82
2021/12/22 06:09:31;;;;;;;24.77;22.37;;;-1.80;57.40;;;;;;4950232;28;20203;-81
2021/12/22 06:11:57;;;;;;;22.87;20.50;;;-1.80;56.70;;;;;;4950605;28;20560;-82
2021/12/22 06:14:22;;;;;;;21.00;19.17;;;-1.80;56.80;;;;;;4950519;28;20254;-80
2021/12/22 06:16:48;;;;;;;23.70;21.47;;;-1.70;56.20;;;;;;4936378;29;20176;-80
2021/12/22 06:19:15;;;;;;;22.13;20.13;;;-1.70;55.80;;;;;;4954177;28;20659;-79
2021/12/22 06:21:41;;;;;;;23.30;20.90;;;-1.70;55.60;;;;;;4958383;29;20184;-80
2021/12/22 06:24:08;;;;;;;22.88;20.77;;;-1.70;55.40;;;;;;4951906;28;20235;-80
2021/12/22 06:26:34;;;;;;;21.90;19.77;;;-1.70;55.10;;;;;;4950129;29;20180;-80
2021/12/22 06:29:00;;;;;;;22.17;20.08;;;-1.60;54.50;;;;;;4950179;28;20417;-80
2021/12/22 06:31:26;;;;;;;21.50;19.30;;;-1.70;53.80;;;;;;4949769;28;20656;-80
2021/12/22 06:33:52;;;;;;;23.00;20.90;;;-1.80;54.50;;;;;;4950329;28;20785;-81
2021/12/22 06:36:18;;;;;;;23.63;21.13;;;-1.80;54.40;;;;;;4950018;28;20211;-81
2021/12/22 06:38:44;;;;;;;24.50;22.33;;;-1.80;55.30;;;;;;4949894;29;20266;-80
2021/12/22 06:41:09;;;;;;;23.40;20.90;;;-1.70;55.40;;;;;;4949788;28;20422;-82
2021/12/22 06:43:35;;;;;;;22.67;20.47;;;-1.60;54.70;;;;;;4950003;28;20478;-83
2021/12/22 06:46:01;;;;;;;22.23;20.13;;;-1.70;54.20;;;;;;4950651;28;20184;-82
2021/12/22 06:48:26;;;;;;;24.77;22.40;;;-1.70;54.50;;;;;;4935734;29;20172;-83
2021/12/22 06:50:52;;;;;;;23.90;21.50;;;-1.70;54.00;;;;;;4950509;29;20180;-82
2021/12/22 06:53:18;;;;;;;22.47;20.20;;;-1.80;53.90;;;;;;4950466;28;20800;-81
2021/12/22 06:55:43;;;;;;;23.00;20.73;;;-1.80;54.30;;;;;;4953296;29;20188;-82
2021/12/22 06:58:09;;;;;;;21.13;19.23;;;-1.70;54.00;;;;;;4953543;28;20190;-82
2021/12/22 07:00:36;;;;;;;22.67;20.57;;;-1.80;53.60;;;;;;4953527;28;20188;-81
2021/12/22 07:03:04;;;;;;;23.70;21.45;;;-1.80;54.20;;;;;;4953178;28;20203;-81
2021/12/22 07:05:30;;;;;;;22.50;20.35;;;-1.80;54.10;;;;;;4953509;28;20648;-82
2021/12/22 07:07:56;;;;;;;23.02;20.83;;;-1.90;54.60;;;;;;4954653;28;20176;-82
2021/12/22 07:10:22;;;;;;;24.43;22.03;;;-1.80;54.80;;;;;;4954352;28;20184;-82
2021/12/22 07:12:50;;;;;;;22.27;20.17;;;-1.80;54.30;;;;;;4953438;28;20211;-82
2021/12/22 07:15:18;;;;;;;22.83;20.55;;;-1.70;53.80;;;;;;4954223;28;20203;-80
2021/12/22 07:17:47;;;;;;;23.83;20.55;;;-1.70;54.00;;;;;;4954244;28;20215;-81
2021/12/22 07:20:14;;;;;;;21.92;19.73;;;-1.70;54.20;;;;;;4953599;29;20213;-81
2021/12/22 07:22:40;;;;;;;22.58;20.17;;;-1.70;54.00;;;;;;4953304;28;20196;-80
2021/12/22 07:25:07;;;;;;;24.35;21.92;;;-1.70;54.10;;;;;;4954419;28;20190;-80
2021/12/22 07:27:32;;;;;;;23.77;21.27;;;-1.70;54.00;;;;;;4956960;28;20259;-83
2021/12/22 07:29:58;;;;;;;25.57;21.10;;;-1.70;53.30;;;;;;4952236;28;20262;-79
2021/12/22 07:32:24;;;;;;;22.40;20.03;;;-1.60;53.30;;;;;;4951244;28;20180;-78
2021/12/22 07:35:00;;;;;;;24.70;22.30;;;-1.50;53.00;;;;;;4952420;28;20191;-78
2021/12/22 07:37:41;;;;;;;23.58;21.33;;;-1.50;53.30;;;;;;4954710;28;20194;-81
2021/12/22 07:40:17;;;;;;;23.17;20.80;;;-1.50;52.50;;;;;;4938951;29;20191;-81
2021/12/22 07:42:43;;;;;;;24.20;21.95;;;-1.60;53.70;;;;;;4955295;28;20270;-84
2021/12/22 07:45:10;;;;;;;25.58;23.08;;;-1.60;54.10;;;;;;4955303;28;20219;-82
2021/12/22 07:47:36;;;;;;;24.20;21.67;;;-1.70;54.00;;;;;;4954625;28;20266;-83
2021/12/22 07:50:04;;;;;;;24.55;22.05;;;-1.60;54.20;;;;;;4954091;28;20676;-82
2021/12/22 07:52:30;;;;;;;24.75;22.30;;;-1.60;53.80;;;;;;4957183;28;20187;-81
2021/12/22 07:54:56;;;;;;;22.52;20.42;;;-1.60;53.90;;;;;;4955573;28;20210;-82
2021/12/22 07:57:22;;;;;;;24.35;21.92;;;-1.50;53.30;;;;;;4955444;28;20184;-82
2021/12/22 07:59:47;;;;;;;26.20;23.40;;;-1.60;53.30;;;;;;4971422;28;20203;-84
2021/12/22 08:02:14;;;;;;;22.20;19.87;;;-1.50;53.00;;;;;;4955864;28;20540;-83
2021/12/22 08:04:40;;;;;;;24.30;21.85;;;-1.40;52.80;;;;;;4955306;28;20172;-82
2021/12/22 08:07:06;;;;;;;24.60;22.30;;;-1.40;52.50;;;;;;4954796;28;20517;-83
2021/12/22 08:09:31;;;;;;;25.27;21.10;;;-1.40;52.50;;;;;;4955499;29;20415;-82
2021/12/22 08:12:05;;;;;;;23.37;21.07;;;-1.40;52.20;;;;;;4971802;28;20477;-82
2021/12/22 08:14:32;;;;;;;23.20;21.00;;;-1.40;52.10;;;;;;4974379;28;20442;-82
2021/12/22 08:16:58;;;;;;;23.67;21.23;;;-1.50;52.10;;;;;;4962901;28;20207;-83
2021/12/22 08:19:27;;;;;;;23.73;21.40;;;-1.40;52.00;;;;;;4955236;28;20207;-82
2021/12/22 08:21:53;;;;;;;22.50;20.30;;;-1.50;51.90;;;;;;4955422;28;20180;-82
2021/12/22 08:24:19;;;;;;;23.92;21.63;;;-1.40;52.00;;;;;;4955070;28;20207;-83
2021/12/22 08:26:45;;;;;;;24.37;21.93;;;-1.40;52.50;;;;;;4955039;29;20427;-81
2021/12/22 08:29:10;;;;;;;22.90;20.40;;;-1.40;51.70;;;;;;4954740;28;20424;-82
2021/12/22 08:31:36;;;;;;;23.83;21.43;;;-1.30;51.70;;;;;;4955117;29;20234;-82
2021/12/22 08:34:04;;;;;;;22.13;20.10;;;-1.30;51.60;;;;;;4955523;28;20208;-81
2021/12/22 08:39:20;;;;;;;23.40;20.90;;;-1.30;51.30;;;;;;4926971;29;20215;-81
2021/12/22 08:41:47;;;;;;;22.90;20.80;;;-1.40;52.10;;;;;;4952083;28;20200;-83
2021/12/22 08:44:16;;;;;;;24.23;21.92;;;-1.40;51.80;;;;;;4957837;28;20231;-81
2021/12/22 08:46:46;;;;;;;23.33;21.00;;;-1.30;52.70;;;;;;4954942;28;20180;-81
2021/12/22 08:49:13;;;;;;;22.33;20.02;;;-1.40;51.70;;;;;;4954934;29;20184;-82
2021/12/22 08:51:39;;;;;;;22.67;20.42;;;-1.20;51.20;;;;;;4954955;29;20655;-80
2021/12/22 08:54:05;;;;;;;22.90;20.60;;;-1.20;51.20;;;;;;4963026;28;20195;-80
2021/12/22 08:56:31;;;;;;;21.40;19.33;;;-1.10;51.50;;;;;;4954932;28;20545;-82
2021/12/22 08:58:58;;;;;;;24.48;22.00;;;-1.10;50.80;;;;;;4954812;29;20189;-80
2021/12/22 09:01:24;;;;;;;20.80;19.00;;;-1.00;51.40;;;;;;4954599;28;20629;-81
2021/12/22 09:03:51;;;;;;;25.35;22.42;;;-1.00;51.20;;;;;;4954570;29;20259;-80
2021/12/22 09:06:16;;;;;;;24.67;20.67;;;-1.00;51.30;;;;;;4973286;28;20186;-82
2021/12/22 09:08:44;;;;;;;23.43;21.13;;;-0.90;51.30;;;;;;4973904;28;20179;-83
2021/12/22 09:11:11;;;;;;;23.95;21.48;;;-0.90;50.50;;;;;;4974158;28;20553;-82
2021/12/22 09:13:38;;;;;;;23.05;20.92;;;-0.90;51.50;;;;;;4973818;28;20187;-83
2021/12/22 09:16:06;;;;;;;23.23;21.00;;;-0.80;51.10;;;;;;4974108;28;20184;-84
2021/12/22 09:18:33;;;;;;;23.50;21.05;;;-0.80;50.50;;;;;;4974488;28;20184;-83
2021/12/22 09:20:59;;;;;;;23.45;21.15;;;-0.70;51.00;;;;;;4974267;28;20179;-81
2021/12/22 09:23:24;;;;;;;24.80;21.70;;;-0.70;50.80;;;;;;4974482;28;20199;-83
2021/12/22 09:25:50;;;;;;;23.03;20.43;;;-0.80;51.10;;;;;;4971225;28;20260;-81
2021/12/22 09:28:17;;;;;;;22.90;20.60;;;-0.70;50.40;;;;;;4977781;28;20526;-81
2021/12/22 09:30:44;;;;;;;21.40;19.20;;;-0.60;50.30;;;;;;4955401;28;20271;-81
2021/12/22 09:33:13;;;;;;;22.00;19.95;;;-0.50;50.40;;;;;;4960661;28;20179;-82
2021/12/22 09:35:40;;;;;;;22.52;20.35;;;-0.50;49.50;;;;;;4959246;28;20186;-80
2021/12/22 09:38:07;;;;;;;21.17;19.05;;;-0.50;49.60;;;;;;4953869;28;20206;-81
2021/12/22 09:40:33;;;;;;;21.60;19.42;;;-0.30;49.60;;;;;;4953501;28;20614;-79
2021/12/22 09:42:58;;;;;;;22.13;19.77;;;-0.30;48.70;;;;;;4954428;28;20207;-79
2021/12/22 09:45:26;;;;;;;21.00;18.93;;;-0.10;48.90;;;;;;4953731;29;20230;-80
2021/12/22 09:53:10;;;;;;;23.45;20.95;;;-0.10;48.50;;;;;;4954981;28;20751;-81
2021/12/22 09:55:36;;;;;;;22.57;20.27;;;-0.10;48.00;;;;;;4952834;28;20275;-80
2021/12/22 09:58:03;;;;;;;21.50;19.40;;;-0.10;48.00;;;;;;4952818;28;20427;-80
2021/12/22 10:00:30;;;;;;;20.35;18.35;;;0.00;47.80;;;;;;4952722;28;20920;-81
2021/12/22 10:02:56;;;;;;;22.50;20.23;;;0.00;47.60;;;;;;4953029;28;20204;-80
2021/12/22 10:05:21;;;;;;;23.50;19.20;;;0.00;48.10;;;;;;4953435;29;20271;-80
2021/12/22 10:08:06;;;;;;;19.90;17.87;;;0.10;47.70;;;;;;4954342;28;20168;-80
2021/12/22 10:10:32;;;;;;;20.35;18.25;;;0.10;47.90;;;;;;4957313;28;20597;-80
2021/12/22 10:13:10;;;;;;;21.27;19.23;;;0.20;47.40;;;;;;4972164;28;20174;-79
2021/12/22 10:15:36;;;;;;;20.95;18.88;;;0.20;47.30;;;;;;4956913;28;20548;-80
2021/12/22 10:18:09;;;;;;;20.38;17.27;;;0.30;47.50;;;;;;4952736;28;20179;-81
2021/12/22 10:20:36;;;;;;;35.65;31.80;;;0.30;46.20;;;;;;4951762;28;20237;-81
2021/12/22 10:23:02;;;;;;;21.02;19.02;;;0.20;46.40;;;;;;4968260;28;20266;-81
2021/12/22 10:25:30;;;;;;;22.30;19.92;;;0.20;47.30;;;;;;4952685;28;20177;-81
2021/12/22 10:28:09;;;;;;;20.00;18.05;;;0.30;46.70;;;;;;4952002;28;20188;-82
2021/12/22 10:30:39;;;;;;;20.42;18.23;;;0.30;46.60;;;;;;4952624;28;20177;-83
2021/12/22 10:33:20;;;;;;;19.38;17.40;;;0.30;47.20;;;;;;4952755;28;20236;-83
2021/12/22 10:35:51;;;;;;;19.30;17.40;;;0.30;46.40;;;;;;4952829;29;20651;-80
2021/12/22 10:38:21;;;;;;;22.73;18.23;;;0.30;45.60;;;;;;4953717;28;20207;-81
2021/12/22 10:40:50;;;;;;;20.27;18.42;;;0.30;46.20;;;;;;4952594;29;20185;-81
2021/12/22 10:43:40;;;;;;;20.75;18.65;;;0.30;46.40;;;;;;4952122;28;20233;-82
2021/12/22 10:46:06;;;;;;;22.33;20.00;;;0.40;47.10;;;;;;4952428;28;20656;-82
2021/12/22 10:51:40;;;;;;;21.48;19.45;;;0.50;46.40;;;;;;4953899;28;20449;-83
2021/12/22 10:54:11;;;;;;;20.17;18.27;;;0.40;46.30;;;;;;4952162;28;20188;-82
2021/12/22 10:56:40;;;;;;;20.65;18.23;;;0.50;46.70;;;;;;4953797;28;20203;-82
2021/12/22 10:59:08;;;;;;;20.98;18.83;;;0.50;45.80;;;;;;4953817;29;20178;-83
2021/12/22 11:01:54;;;;;;;26.88;19.15;;;0.60;46.40;;;;;;4953547;28;20274;-82
2021/12/22 11:04:25;;;;;;;22.25;19.10;;;0.60;45.50;;;;;;4952027;28;20205;-81
2021/12/22 11:06:53;;;;;;;22.05;19.70;;;0.60;46.50;;;;;;4952649;28;20541;-81
2021/12/22 11:09:20;;;;;;;21.40;19.20;;;0.60;46.20;;;;;;4952305;28;20710;-80
2021/12/22 11:11:52;;;;;;;22.15;19.73;;;0.60;46.10;;;;;;4956290;28;20186;-81
2021/12/22 11:14:22;;;;;;;23.42;20.90;;;0.60;45.50;;;;;;4958145;28;20259;-81
2021/12/22 11:16:54;;;;;;;21.30;19.23;;;0.80;45.90;;;;;;4960214;28;20285;-81
2021/12/22 11:19:20;;;;;;;20.70;18.63;;;0.80;45.60;;;;;;4955699;29;20182;-81
2021/12/22 11:22:03;;;;;;;20.42;18.42;;;0.70;44.80;;;;;;4956464;28;20319;-82
2021/12/22 11:24:37;;;;;;;22.75;20.25;;;0.80;45.20;;;;;;4955382;28;20242;-81
2021/12/22 11:27:04;;;;;;;21.17;19.08;;;0.70;45.70;;;;;;4953458;28;20184;-81
2021/12/22 11:29:34;;;;;;;18.70;16.90;;;0.80;44.80;;;;;;4955297;28;20541;-81
2021/12/22 11:32:03;;;;;;;20.80;18.60;;;0.80;44.90;;;;;;4955588;29;20270;-81
2021/12/22 11:34:30;;;;;;;20.55;18.00;;;0.90;44.90;;;;;;4954116;28;20184;-81
2021/12/22 11:36:57;;;;;;;20.52;18.42;;;1.00;44.40;;;;;;4971250;28;20181;-81
2021/12/22 11:39:22;;;;;;;20.02;18.23;;;1.00;45.00;;;;;;4954757;28;20256;-81
2021/12/22 11:41:57;;;;;;;19.63;17.93;;;1.10;45.00;;;;;;4954766;28;20222;-81
2021/12/22 11:44:25;;;;;;;20.50;18.40;;;1.10;44.30;;;;;;4957660;28;20206;-81
2021/12/22 11:46:56;;;;;;;19.08;17.23;;;1.00;45.00;;;;;;4974481;28;20636;-81
2021/12/22 11:49:23;;;;;;;20.27;18.40;;;1.00;45.00;;;;;;4955122;28;20185;-82
2021/12/22 11:51:49;;;;;;;19.30;17.50;;;1.00;45.40;;;;;;4955033;29;20175;-81
2021/12/22 11:54:15;;;;;;;19.85;17.70;;;1.00;45.00;;;;;;4955057;28;20591;-81
2021/12/22 11:56:49;;;;;;;18.77;16.88;;;1.10;45.10;;;;;;4955050;28;20558;-82
2021/12/22 11:59:27;;;;;;;19.35;17.50;;;1.10;45.10;;;;;;4955938;28;20190;-81
2021/12/22 12:02:30;;;;;;;18.50;16.50;;;1.10;45.10;;;;;;4954637;28;20190;-82
2021/12/22 12:05:15;;;;;;;19.13;17.33;;;1.20;45.20;;;;;;4956050;28;20187;-81
2021/12/22 12:07:42;;;;;;;22.00;19.88;;;1.30;44.50;;;;;;4955203;28;20264;-80
2021/12/22 12:10:39;;;;;;;20.88;18.95;;;1.20;44.70;;;;;;4950243;28;20527;-81
2021/12/22 12:13:43;;;;;;;19.70;17.77;;;1.30;45.00;;;;;;4955328;28;20320;-81
2021/12/22 12:22:25;;;;;;;19.95;17.95;;;1.30;44.70;;;;;;4959055;28;20548;-81
2021/12/22 12:24:54;;;;;;;20.83;18.83;;;1.40;44.20;;;;;;4950989;28;20187;-81
2021/12/22 12:27:43;;;;;;;22.58;19.80;;;1.50;43.80;;;;;;4951252;29;20325;-81
2021/12/22 12:30:26;;;;;;;23.15;20.75;;;1.50;43.60;;;;;;4939976;28;20213;-81
2021/12/22 12:32:53;;;;;;;22.00;19.90;;;1.50;44.20;;;;;;4955087;28;20183;-81
2021/12/22 12:35:20;;;;;;;22.27;20.10;;;1.50;44.30;;;;;;4955181;28;20312;-81
2021/12/22 12:38:07;;;;;;;19.05;17.15;;;1.50;43.80;;;;;;4954810;28;20627;-82
2021/12/22 12:40:57;;;;;;;19.38;17.38;;;1.60;44.00;;;;;;4954709;28;20226;-82
2021/12/22 12:46:28;;;;;;;20.55;18.20;;;1.60;43.80;;;;;;4955426;28;20220;-83
2021/12/22 12:49:07;;;;;;;19.73;17.77;;;1.60;42.80;;;;;;4954466;28;20171;-84
2021/12/22 12:51:45;;;;;;;21.88;19.70;;;1.60;43.80;;;;;;4953453;28;20197;-83
2021/12/22 12:54:17;;;;;;;19.65;17.75;;;1.70;43.40;;;;;;4953575;28;20258;-82
2021/12/22 12:56:48;;;;;;;21.33;19.17;;;1.70;43.10;;;;;;4969306;28;20199;-85
2021/12/22 12:59:25;;;;;;;20.33;18.30;;;1.70;43.90;;;;;;4971154;28;20181;-86
2021/12/22 13:01:50;;;;;;;20.85;18.80;;;1.70;43.30;;;;;;4971320;28;20173;-86
2021/12/22 13:04:20;;;;;;;21.30;19.10;;;1.80;43.40;;;;;;4970416;28;20573;-84
2021/12/22 13:06:49;;;;;;;22.02;19.30;;;1.70;42.80;;;;;;4970076;28;20176;-84
2021/12/22 13:09:22;;;;;;;21.02;18.77;;;1.80;43.00;;;;;;4969673;28;20228;-84
2021/12/22 13:11:57;;;;;;;20.17;18.13;;;1.80;43.10;;;;;;4970018;28;20191;-84
2021/12/22 13:17:19;;;;;;;20.48;18.38;;;1.80;42.80;;;;;;4955455;29;20186;-84